Time;durP1;ratioP1;P1;durP2;ratioP2;P2;SDS_P1;SDS_P2;PMS_P1;PMS_P2;Temp;Humidity;BMP_temperature;BMP_pressure;BME280_temperature;BME280_humidity;BME280_pressure;Samples;Min_cycle;Max_cycle;Signal;HPM_P1;HPM_P2
2022/03/21 00:01:51;;;;;;;42.95;17.10;;;;;;;8.22;100.00;101654.44;5066225;28;20489;-86
2022/03/21 00:04:16;;;;;;;36.75;14.48;;;;;;;8.20;100.00;101646.50;5041944;28;20588;-86
2022/03/21 00:06:42;;;;;;;37.13;14.82;;;;;;;8.13;100.00;101629.31;5038399;28;20039;-87
2022/03/21 00:09:11;;;;;;;44.33;18.20;;;;;;;8.23;100.00;101646.25;5071257;28;20028;-86
2022/03/21 00:11:37;;;;;;;47.28;19.17;;;;;;;8.20;100.00;101641.16;5072894;28;20096;-86
2022/03/21 00:14:04;;;;;;;46.10;18.13;;;;;;;8.25;100.00;101643.44;5072563;28;20511;-88
2022/03/21 00:16:30;;;;;;;40.92;15.27;;;;;;;8.24;100.00;101634.56;5073008;28;20036;-87
2022/03/21 00:18:55;;;;;;;50.08;18.60;;;;;;;8.29;100.00;101640.34;5060211;28;20032;-87
2022/03/21 00:21:21;;;;;;;45.65;17.75;;;;;;;8.20;100.00;101625.09;5068728;28;20039;-88
2022/03/21 00:23:47;;;;;;;45.92;18.50;;;;;;;8.24;100.00;101636.38;5052030;28;20042;-88
2022/03/21 00:26:13;;;;;;;38.08;16.10;;;;;;;8.28;100.00;101619.91;5055106;28;20398;-87
2022/03/21 00:28:39;;;;;;;38.80;15.45;;;;;;;8.33;100.00;101630.19;5084402;28;20065;-88
2022/03/21 00:31:05;;;;;;;56.15;21.77;;;;;;;8.35;100.00;101633.56;5068852;28;20390;-87
2022/03/21 00:33:57;;;;;;;27.20;13.30;;;;;;;8.31;100.00;101624.97;5065781;28;20041;-87
2022/03/21 00:36:22;;;;;;;33.72;12.48;;;;;;;8.31;100.00;101627.66;5049236;28;20076;-87
2022/03/21 00:38:48;;;;;;;48.67;18.08;;;;;;;8.22;100.00;101603.53;5049526;28;20066;-86
2022/03/21 00:41:14;;;;;;;30.33;13.38;;;;;;;8.20;100.00;101608.16;5061487;28;20044;-87
2022/03/21 00:43:39;;;;;;;32.10;13.98;;;;;;;8.20;100.00;101609.00;5053478;28;20044;-87
2022/03/21 00:46:05;;;;;;;41.00;16.98;;;;;;;8.19;100.00;101607.31;5065747;28;20032;-87
2022/03/21 00:48:32;;;;;;;28.10;11.98;;;;;;;8.08;100.00;101594.06;5034788;28;20477;-87
2022/03/21 00:50:58;;;;;;;39.97;15.85;;;;;;;8.01;100.00;101588.41;5070999;28;20029;-87
2022/03/21 00:53:24;;;;;;;45.03;16.42;;;;;;;8.18;100.00;101615.50;5075569;28;20061;-87
2022/03/21 00:55:51;;;;;;;30.80;12.93;;;;;;;8.19;100.00;101626.09;5034422;28;20040;-87
2022/03/21 00:58:17;;;;;;;40.17;15.98;;;;;;;8.14;100.00;101637.22;5041656;28;20044;-87
2022/03/21 01:00:43;;;;;;;36.03;13.32;;;;;;;8.13;100.00;101634.69;5052401;28;20435;-86
2022/03/21 01:03:09;;;;;;;44.42;15.32;;;;;;;8.12;100.00;101638.31;5050807;28;20044;-87
2022/03/21 01:05:35;;;;;;;38.72;16.20;;;;;;;7.99;100.00;101614.50;5066892;28;20583;-87
2022/03/21 01:08:02;;;;;;;42.75;16.38;;;;;;;8.14;100.00;101647.91;5063958;28;20033;-87
2022/03/21 01:10:29;;;;;;;35.92;15.73;;;;;;;7.99;100.00;101617.19;5071838;28;20103;-87
2022/03/21 01:12:55;;;;;;;36.92;15.07;;;;;;;8.08;100.00;101631.56;5069467;28;20028;-87
2022/03/21 01:15:23;;;;;;;41.53;15.75;;;;;;;8.20;100.00;101637.63;5050286;28;20508;-87
2022/03/21 01:17:49;;;;;;;36.83;15.68;;;;;;;8.12;100.00;101625.81;5053240;28;20036;-87
2022/03/21 01:20:16;;;;;;;23.27;12.48;;;;;;;8.29;100.00;101643.03;5066662;28;20028;-88
2022/03/21 01:22:43;;;;;;;39.65;15.30;;;;;;;8.26;100.00;101637.09;5069623;28;20127;-87
2022/03/21 01:25:10;;;;;;;37.08;11.82;;;;;;;8.12;100.00;101616.91;5035328;28;20045;-87
2022/03/21 01:27:36;;;;;;;35.42;14.27;;;;;;;8.21;100.00;101640.19;5041764;28;20051;-87
2022/03/21 01:30:03;;;;;;;30.88;11.27;;;;;;;8.20;100.00;101622.41;5068571;28;20529;-87
2022/03/21 01:32:29;;;;;;;47.08;16.15;;;;;;;8.21;100.00;101617.91;5034371;28;20597;-87
2022/03/21 01:34:55;;;;;;;30.60;12.18;;;;;;;8.17;100.00;101620.00;5035783;28;20044;-87
2022/03/21 01:37:21;;;;;;;34.50;13.60;;;;;;;8.22;100.00;101617.75;5050378;28;20032;-87
2022/03/21 01:39:46;;;;;;;38.38;15.82;;;;;;;8.18;100.00;101624.41;5069634;28;20044;-86
2022/03/21 01:42:12;;;;;;;37.17;15.15;;;;;;;8.18;100.00;101612.81;5065596;28;20566;-86
2022/03/21 01:44:38;;;;;;;35.13;14.80;;;;;;;8.13;100.00;101605.22;5052280;28;20116;-87
2022/03/21 01:47:04;;;;;;;34.88;14.18;;;;;;;8.15;100.00;101619.31;5067165;28;20111;-86
2022/03/21 01:49:30;;;;;;;35.28;14.32;;;;;;;8.08;100.00;101592.22;5047316;28;20024;-87
2022/03/21 01:51:55;;;;;;;36.00;14.68;;;;;;;8.14;100.00;101613.09;5049968;28;20037;-87
2022/03/21 01:57:05;;;;;;;40.10;16.05;;;;;;;8.02;100.00;101603.50;5051630;28;20032;-86
2022/03/21 01:59:32;;;;;;;53.80;17.70;;;;;;;8.08;100.00;101605.63;5054090;28;20035;-86
2022/03/21 02:01:58;;;;;;;38.25;15.82;;;;;;;8.09;100.00;101604.63;5063624;28;20077;-86
2022/03/21 02:04:24;;;;;;;40.85;16.08;;;;;;;8.13;100.00;101602.53;5073016;28;20028;-86
2022/03/21 02:06:49;;;;;;;34.83;14.82;;;;;;;8.09;100.00;101596.59;5064039;28;20033;-87
2022/03/21 02:09:15;;;;;;;39.10;15.93;;;;;;;7.97;100.00;101572.78;5068163;28;20021;-85
2022/03/21 02:11:41;;;;;;;51.75;16.05;;;;;;;7.88;100.00;101559.22;5034177;28;20040;-87
2022/03/21 02:14:09;;;;;;;38.92;14.63;;;;;;;8.13;100.00;101594.50;5058852;28;20028;-87
2022/03/21 02:16:36;;;;;;;38.42;14.65;;;;;;;8.11;100.00;101591.09;5048854;28;20370;-87
2022/03/21 02:19:06;;;;;;;33.67;14.80;;;;;;;8.00;100.00;101575.19;5039487;28;20449;-87
2022/03/21 02:22:00;;;;;;;36.05;14.40;;;;;;;8.06;100.00;101596.03;5056888;28;20060;-87
2022/03/21 02:24:37;;;;;;;33.33;13.82;;;;;;;7.94;100.00;101589.97;5047171;28;20128;-86
2022/03/21 02:27:03;;;;;;;39.05;13.68;;;;;;;7.89;100.00;101593.06;5049470;28;20032;-87
2022/03/21 02:29:29;;;;;;;38.67;15.52;;;;;;;7.89;100.00;101601.09;5055209;28;20040;-86
2022/03/21 02:31:55;;;;;;;33.67;14.10;;;;;;;7.81;100.00;101590.22;5033973;28;20040;-86
2022/03/21 02:34:24;;;;;;;37.60;14.05;;;;;;;7.78;100.00;101590.50;5065103;28;20306;-85
2022/03/21 02:36:52;;;;;;;36.60;12.90;;;;;;;7.69;100.00;101583.28;5020935;28;20520;-86
2022/03/21 02:39:18;;;;;;;30.00;12.60;;;;;;;7.69;100.00;101577.91;5065362;28;20542;-86
2022/03/21 02:41:43;;;;;;;34.88;14.73;;;;;;;7.69;100.00;101576.09;5047744;28;20036;-86
2022/03/21 02:44:09;;;;;;;35.80;15.77;;;;;;;7.62;100.00;101576.75;5051266;28;20370;-86
2022/03/21 02:46:36;;;;;;;36.03;13.55;;;;;;;7.57;100.00;101579.88;5068501;28;20485;-85
2022/03/21 02:49:02;;;;;;;34.70;14.25;;;;;;;7.54;100.00;101565.91;5051031;28;20040;-87
2022/03/21 02:51:28;;;;;;;34.70;12.40;;;;;;;7.53;100.00;101566.88;5066370;28;20443;-87
2022/03/21 02:53:54;;;;;;;41.20;14.15;;;;;;;7.57;100.00;101577.19;5051079;28;20039;-86
2022/03/21 02:56:20;;;;;;;35.97;14.27;;;;;;;7.37;100.00;101552.19;5044140;28;20032;-85
2022/03/21 02:58:47;;;;;;;35.53;15.02;;;;;;;7.36;100.00;101550.50;5044778;28;20036;-87
2022/03/21 03:01:15;;;;;;;33.53;14.82;;;;;;;7.18;100.00;101523.53;5062956;28;20024;-87
2022/03/21 03:03:41;;;;;;;37.92;14.70;;;;;;;7.49;100.00;101577.88;5051488;28;20044;-86
2022/03/21 03:06:07;;;;;;;34.92;13.88;;;;;;;7.46;100.00;101567.44;5046231;28;20042;-87
2022/03/21 03:08:34;;;;;;;32.47;13.43;;;;;;;7.48;100.00;101564.63;5048712;28;20044;-87
2022/03/21 03:11:00;;;;;;;41.55;15.10;;;;;;;7.52;100.00;101570.56;5062687;28;20064;-86
2022/03/21 03:13:26;;;;;;;36.83;14.30;;;;;;;7.43;100.00;101561.50;5064906;28;20447;-87
2022/03/21 03:15:52;;;;;;;42.33;14.77;;;;;;;7.18;100.00;101520.03;5061280;28;20124;-87
2022/03/21 03:18:17;;;;;;;33.20;13.85;;;;;;;7.11;100.00;101513.50;5060063;28;20040;-87
2022/03/21 03:20:51;;;;;;;39.17;15.25;;;;;;;7.43;100.00;101567.69;5066198;28;20394;-87
2022/03/21 03:23:21;;;;;;;36.10;14.25;;;;;;;7.46;100.00;101561.22;5065802;28;20028;-86
2022/03/21 03:25:51;;;;;;;33.80;13.90;;;;;;;7.39;100.00;101542.19;5054726;28;20035;-88
2022/03/21 03:28:16;;;;;;;32.63;12.90;;;;;;;7.42;100.00;101554.47;5045067;28;20028;-87
2022/03/21 03:30:42;;;;;;;34.65;11.82;;;;;;;7.32;100.00;101540.19;5045247;28;20036;-87
2022/03/21 03:33:08;;;;;;;26.02;10.93;;;;;;;7.21;100.00;101539.31;5064464;28;20028;-87
2022/03/21 03:35:35;;;;;;;35.45;14.38;;;;;;;7.13;100.00;101546.31;5035000;28;20040;-86
2022/03/21 03:38:01;;;;;;;32.05;13.80;;;;;;;6.92;100.00;101544.53;5049419;28;20044;-86
2022/03/21 03:40:26;;;;;;;39.15;14.93;;;;;;;6.76;100.00;101560.19;5058096;28;20032;-87
2022/03/21 03:42:52;;;;;;;32.33;13.38;;;;;;;6.58;100.00;101563.44;5048981;28;20034;-87
2022/03/21 03:45:19;;;;;;;39.53;15.68;;;;;;;6.34;100.00;101554.84;5064577;28;20048;-86
2022/03/21 03:47:45;;;;;;;35.70;13.50;;;;;;;6.23;100.00;101568.25;5048143;28;20036;-86
2022/03/21 03:50:11;;;;;;;32.92;13.52;;;;;;;6.11;100.00;101562.97;5055006;28;20040;-86
2022/03/21 03:52:40;;;;;;;40.58;14.32;;;;;;;5.97;100.00;101557.91;5048938;28;20039;-86
2022/03/21 03:55:07;;;;;;;30.02;13.27;;;;;;;5.97;100.00;101565.91;5065099;28;20029;-86
2022/03/21 03:57:33;;;;;;;37.65;15.02;;;;;;;5.78;100.00;101544.34;5064647;28;20052;-87
2022/03/21 03:59:58;;;;;;;29.33;12.63;;;;;;;5.70;100.00;101548.47;5066287;28;20025;-87
2022/03/21 04:02:24;;;;;;;31.50;12.70;;;;;;;5.69;100.00;101560.13;5066527;28;20440;-87
2022/03/21 04:04:50;;;;;;;39.45;14.15;;;;;;;5.57;100.00;101549.59;5049267;28;20037;-86
2022/03/21 04:07:15;;;;;;;35.88;14.30;;;;;;;5.51;100.00;101553.63;5064466;28;20389;-86
2022/03/21 04:09:41;;;;;;;37.72;13.10;;;;;;;5.25;100.00;101529.88;5066595;28;20063;-86
2022/03/21 04:12:07;;;;;;;39.22;13.23;;;;;;;5.39;100.00;101557.25;5072567;28;20036;-86
2022/03/21 04:14:33;;;;;;;29.50;11.90;;;;;;;5.33;100.00;101544.41;5073702;28;20035;-86
2022/03/21 04:16:58;;;;;;;31.50;11.13;;;;;;;5.47;100.00;101557.50;5067549;28;20069;-85
2022/03/21 04:19:24;;;;;;;39.35;13.85;;;;;;;5.48;100.00;101557.38;5055666;28;20465;-86
2022/03/21 04:21:50;;;;;;;27.63;11.25;;;;;;;5.57;100.00;101566.44;5070692;28;20036;-86
2022/03/21 04:24:16;;;;;;;37.35;13.68;;;;;;;5.55;100.00;101538.19;5036834;28;20458;-86
2022/03/21 04:26:41;;;;;;;38.28;13.35;;;;;;;5.44;100.00;101520.41;5060342;28;20040;-86
2022/03/21 04:29:07;;;;;;;26.10;10.23;;;;;;;5.76;100.00;101560.47;5066709;28;20063;-87
2022/03/21 04:31:33;;;;;;;41.70;14.98;;;;;;;5.89;100.00;101557.66;5051259;28;20032;-87
2022/03/21 04:33:59;;;;;;;39.78;16.55;;;;;;;5.99;100.00;101557.78;5051514;28;20032;-86
2022/03/21 04:36:24;;;;;;;42.63;15.15;;;;;;;6.06;100.00;101549.16;5028815;28;20115;-86
2022/03/21 04:38:50;;;;;;;35.13;14.05;;;;;;;6.17;100.00;101553.59;5052629;28;20429;-86
2022/03/21 04:41:16;;;;;;;38.55;15.40;;;;;;;6.28;100.00;101568.72;5037016;28;20037;-87
2022/03/21 04:43:42;;;;;;;28.25;11.98;;;;;;;6.42;100.00;101568.41;5065282;28;20106;-88
2022/03/21 04:46:07;;;;;;;39.67;14.25;;;;;;;6.48;100.00;101562.53;5051727;28;20045;-87
2022/03/21 04:48:33;;;;;;;34.55;14.10;;;;;;;6.59;100.00;101567.00;5051208;28;20040;-87
2022/03/21 04:50:59;;;;;;;34.17;12.32;;;;;;;6.59;100.00;101546.47;5051799;28;20534;-88
2022/03/21 04:53:25;;;;;;;26.35;11.43;;;;;;;6.68;100.00;101552.00;5051928;28;20033;-87
2022/03/21 04:55:53;;;;;;;32.25;12.88;;;;;;;6.72;100.00;101559.63;5053660;28;20040;-87
2022/03/21 04:58:19;;;;;;;32.47;13.38;;;;;;;6.84;100.00;101568.41;5072360;28;20025;-87
2022/03/21 05:00:44;;;;;;;33.15;13.18;;;;;;;6.72;100.00;101561.44;5071097;28;20077;-86
2022/03/21 05:03:10;;;;;;;33.45;13.13;;;;;;;6.73;100.00;101566.66;5068095;28;20029;-87
2022/03/21 05:05:36;;;;;;;29.30;12.63;;;;;;;6.70;100.00;101571.44;5067577;28;20024;-87
2022/03/21 05:08:03;;;;;;;31.88;12.38;;;;;;;6.60;100.00;101558.84;5049396;28;20105;-87
2022/03/21 05:10:30;;;;;;;27.70;10.80;;;;;;;6.67;100.00;101574.34;5029435;28;20048;-85
2022/03/21 05:12:57;;;;;;;33.83;11.68;;;;;;;6.54;100.00;101564.69;5064257;28;20097;-87
2022/03/21 05:15:24;;;;;;;33.45;11.88;;;;;;;6.62;100.00;101581.91;5027963;28;20041;-87
2022/03/21 05:17:51;;;;;;;22.35;9.52;;;;;;;6.45;100.00;101556.59;5047275;28;20033;-86
2022/03/21 05:20:17;;;;;;;38.53;12.77;;;;;;;6.59;100.00;101573.19;5070906;28;20474;-86
2022/03/21 05:30:57;;;;;;;34.88;12.98;;;;;;;6.59;100.00;101580.34;5038060;28;20045;-86
2022/03/21 05:31:03;;;;;;;37.38;12.70;;;;;;;6.69;100.00;101561.69;5052817;28;20043;-87
2022/03/21 05:36:14;;;;;;;33.88;12.00;;;;;;;6.96;100.00;101586.06;5068729;28;20523;-85
2022/03/21 05:38:39;;;;;;;36.13;12.40;;;;;;;7.00;100.00;101578.63;5051663;28;20052;-86
2022/03/21 05:41:05;;;;;;;29.55;11.80;;;;;;;6.97;100.00;101563.69;5043938;28;20122;-86
2022/03/21 05:43:32;;;;;;;24.17;10.45;;;;;;;7.10;100.00;101581.38;5032539;28;20044;-85
2022/03/21 05:46:01;;;;;;;20.75;9.35;;;;;;;7.01;100.00;101581.19;5065831;28;20036;-86
2022/03/21 05:51:13;;;;;;;30.83;11.07;;;;;;;6.91;100.00;101584.78;5077032;28;20166;-86
2022/03/21 05:53:38;;;;;;;28.08;10.73;;;;;;;6.74;100.00;101564.81;5066393;28;20047;-86
2022/03/21 05:56:05;;;;;;;25.65;9.00;;;;;;;6.79;100.00;101590.19;5054749;28;20036;-86
2022/03/21 05:58:30;;;;;;;26.30;10.20;;;;;;;6.74;100.00;101586.19;5068379;28;20089;-86
2022/03/21 06:00:56;;;;;;;27.23;9.88;;;;;;;6.62;100.00;101580.09;5035524;28;20458;-86
2022/03/21 06:03:24;;;;;;;25.73;8.73;;;;;;;6.60;100.00;101585.56;5068140;28;20097;-87
2022/03/21 06:05:50;;;;;;;26.10;11.20;;;;;;;6.44;100.00;101574.47;5069012;28;20095;-87
2022/03/21 06:08:16;;;;;;;22.20;10.05;;;;;;;6.47;100.00;101584.88;5035305;28;20044;-86
2022/03/21 06:10:42;;;;;;;22.83;8.70;;;;;;;6.21;100.00;101548.84;5050609;28;20110;-86
2022/03/21 06:13:08;;;;;;;28.55;10.40;;;;;;;6.37;100.00;101573.28;5038795;28;20129;-87
2022/03/21 06:15:37;;;;;;;29.05;10.45;;;;;;;6.36;100.00;101579.59;5068102;28;20133;-86
2022/03/21 06:18:09;;;;;;;23.15;8.38;;;;;;;6.46;100.00;101587.72;5035469;28;20105;-86
2022/03/21 06:20:36;;;;;;;25.73;10.82;;;;;;;6.47;100.00;101584.88;5036430;28;20489;-86
2022/03/21 06:23:02;;;;;;;23.55;9.32;;;;;;;6.45;100.00;101586.00;5064906;28;20020;-86
2022/03/21 06:25:27;;;;;;;23.88;9.68;;;;;;;6.50;100.00;101587.31;5052470;28;20469;-86
2022/03/21 06:27:56;;;;;;;23.45;10.35;;;;;;;6.50;100.00;101587.31;5069178;28;20035;-87
2022/03/21 06:30:21;;;;;;;23.45;9.35;;;;;;;6.47;100.00;101592.06;5047885;28;20051;-87
2022/03/21 06:32:47;;;;;;;26.60;9.80;;;;;;;6.22;100.00;101558.53;5050736;28;20466;-86
2022/03/21 06:35:13;;;;;;;25.50;9.38;;;;;;;6.32;100.00;101578.16;5050255;28;20388;-86
2022/03/21 06:37:40;;;;;;;24.98;9.02;;;;;;;6.39;100.00;101595.38;5046887;28;20146;-86
2022/03/21 06:40:06;;;;;;;31.60;9.80;;;;;;;6.38;100.00;101601.72;5048138;28;20086;-87
2022/03/21 06:42:32;;;;;;;21.95;7.80;;;;;;;6.39;100.00;101588.19;5061954;28;20029;-87
2022/03/21 06:44:57;;;;;;;22.77;9.95;;;;;;;6.53;100.00;101604.91;5051999;28;20041;-88
2022/03/21 06:47:23;;;;;;;21.35;8.50;;;;;;;6.57;100.00;101596.50;5047732;28;20133;-86
2022/03/21 06:49:49;;;;;;;15.50;7.05;;;;;;;6.71;100.00;101606.03;5033106;28;20040;-86
2022/03/21 06:52:18;;;;;;;28.15;9.63;;;;;;;6.80;100.00;101597.25;5069072;28;20545;-86
2022/03/21 06:54:48;;;;;;;23.48;9.70;;;;;;;6.89;100.00;101600.09;5068443;28;20024;-86
2022/03/21 06:57:16;;;;;;;25.38;7.90;;;;;;;7.00;100.00;101606.22;5035993;28;20158;-87
2022/03/21 06:59:42;;;;;;;26.73;9.82;;;;;;;6.93;100.00;101581.00;5051440;28;20390;-86
2022/03/21 07:02:11;;;;;;;18.23;8.98;;;;;;;7.00;100.00;101581.31;5034317;28;20056;-86
2022/03/21 07:04:36;;;;;;;28.08;10.48;;;;;;;7.27;100.00;101611.00;5048688;28;20024;-87
2022/03/21 07:07:02;;;;;;;23.20;9.18;;;;;;;7.38;100.00;101614.56;5032228;28;20037;-86
2022/03/21 07:09:28;;;;;;;26.20;9.50;;;;;;;7.39;100.00;101597.53;5052365;28;20407;-86
2022/03/21 07:11:53;;;;;;;23.92;8.45;;;;;;;7.43;100.00;101594.44;5068982;28;20021;-87
2022/03/21 07:14:19;;;;;;;22.95;8.05;;;;;;;7.53;100.00;101602.53;5049325;28;20496;-86
2022/03/21 07:16:45;;;;;;;25.27;8.85;;;;;;;7.69;100.00;101610.03;5065574;28;20039;-85
2022/03/21 07:19:11;;;;;;;17.23;6.90;;;;;;;7.70;100.00;101609.91;5049892;28;20131;-86
2022/03/21 07:21:37;;;;;;;15.00;7.05;;;;;;;7.74;100.00;101605.13;5050460;28;20162;-86
2022/03/21 07:24:03;;;;;;;23.52;8.88;;;;;;;7.72;100.00;101594.53;5050874;28;20051;-86
2022/03/21 07:26:28;;;;;;;18.45;8.20;;;;;;;7.80;100.00;101601.91;5035010;28;20041;-86
2022/03/21 07:28:54;;;;;;;20.63;7.80;;;;;;;7.84;100.00;101591.78;5032476;28;20033;-86
2022/03/21 07:31:19;;;;;;;20.50;9.10;;;;;;;7.84;100.00;101589.09;5066262;28;20063;-86
2022/03/21 07:33:45;;;;;;;19.73;9.05;;;;;;;7.86;100.00;101584.47;5045091;28;20111;-87
2022/03/21 07:36:11;;;;;;;23.42;8.73;;;;;;;7.93;100.00;101591.78;5052015;28;21761;-86
2022/03/21 07:38:37;;;;;;;19.38;8.45;;;;;;;7.99;100.00;101597.56;5048302;28;20443;-86
2022/03/21 07:41:07;;;;;;;19.23;8.20;;;;;;;8.08;100.00;101602.09;5052671;28;20032;-86
2022/03/21 07:43:36;;;;;;;23.58;9.63;;;;;;;8.11;100.00;101599.97;5052812;28;20494;-86
2022/03/21 07:48:46;;;;;;;25.05;8.23;;;;;;;8.32;100.00;101610.59;5058665;28;20555;-86
2022/03/21 07:51:12;;;;;;;18.95;7.65;;;;;;;8.32;100.00;101582.94;5051559;28;20060;-86
2022/03/21 07:53:38;;;;;;;15.63;6.00;;;;;;;8.59;100.00;101593.81;5044865;28;20090;-86
2022/03/21 07:56:04;;;;;;;18.00;8.90;;;;;;;8.98;99.88;101585.72;5060421;28;20025;-87
2022/03/21 07:58:31;;;;;;;24.90;9.82;;;;;;;10.58;92.50;101594.28;5075148;28;20035;-86
2022/03/21 08:00:59;;;;;;;21.52;8.50;;;;;;;11.88;86.28;101599.63;5056733;28;20028;-87
2022/03/21 08:03:25;;;;;;;25.30;8.88;;;;;;;11.70;83.81;101579.16;5050875;28;20036;-86
2022/03/21 08:05:52;;;;;;;17.80;8.05;;;;;;;11.39;84.91;101606.63;5067993;28;20098;-87
2022/03/21 08:08:19;;;;;;;20.75;8.32;;;;;;;11.04;86.22;101607.59;5086026;28;20028;-86
2022/03/21 08:10:46;;;;;;;18.33;7.32;;;;;;;10.77;86.94;101599.50;5071294;28;20041;-87
2022/03/21 08:13:16;;;;;;;24.58;10.38;;;;;;;11.15;85.62;101612.72;5060151;28;20256;-85
2022/03/21 08:15:43;;;;;;;22.13;8.30;;;;;;;12.61;79.62;101589.09;5079011;28;20040;-86
2022/03/21 08:18:10;;;;;;;21.48;8.38;;;;;;;13.88;72.76;101592.84;5072153;28;20027;-86
2022/03/21 08:20:38;;;;;;;16.08;8.05;;;;;;;14.76;69.08;101586.16;5086236;28;20030;-85
2022/03/21 08:23:06;;;;;;;24.98;8.45;;;;;;;15.51;65.75;101602.31;5081809;28;20033;-87
2022/03/21 08:25:33;;;;;;;18.88;8.43;;;;;;;15.97;62.56;101606.66;5078306;28;20032;-84
2022/03/21 08:27:58;;;;;;;15.25;7.30;;;;;;;16.33;59.59;101597.66;5050188;28;20041;-85
2022/03/21 08:30:24;;;;;;;20.70;8.65;;;;;;;16.37;58.95;101609.81;5062008;28;20024;-86
2022/03/21 08:32:50;;;;;;;17.65;8.20;;;;;;;16.39;58.37;101605.03;5059427;28;20028;-86
2022/03/21 08:35:17;;;;;;;24.52;8.18;;;;;;;16.23;58.68;101598.81;5045999;28;20486;-85
2022/03/21 08:37:43;;;;;;;19.92;8.63;;;;;;;15.68;59.55;101586.66;5055233;28;20029;-84
2022/03/21 08:40:10;;;;;;;15.38;7.72;;;;;;;15.39;61.60;101620.88;5050524;28;20151;-84
2022/03/21 08:42:36;;;;;;;16.00;7.35;;;;;;;14.86;64.16;101608.41;5054440;28;20480;-85
2022/03/21 08:45:03;;;;;;;22.27;7.95;;;;;;;14.19;65.62;101601.78;5041825;28;20098;-85
2022/03/21 08:47:28;;;;;;;17.27;6.25;;;;;;;13.36;69.44;101616.72;5053409;28;20444;-84
2022/03/21 08:49:54;;;;;;;15.98;6.45;;;;;;;12.49;73.02;101610.16;5072330;28;20065;-84
2022/03/21 08:52:22;;;;;;;18.52;7.78;;;;;;;11.88;76.43;101626.56;5055023;28;20045;-85
2022/03/21 08:54:48;;;;;;;22.23;9.35;;;;;;;11.53;79.07;101624.03;5053981;28;20143;-84
2022/03/21 08:57:14;;;;;;;20.73;8.65;;;;;;;11.28;80.32;101617.69;5042616;28;20135;-86
2022/03/21 08:59:39;;;;;;;18.85;8.70;;;;;;;11.10;81.33;101598.88;5055264;28;20032;-85
2022/03/21 09:02:05;;;;;;;22.75;8.63;;;;;;;11.66;79.58;101632.50;5071432;28;20025;-85
2022/03/21 09:04:31;;;;;;;19.40;8.88;;;;;;;12.58;75.85;101617.25;5056121;28;20127;-86
2022/03/21 09:06:57;;;;;;;24.10;10.23;;;;;;;12.85;73.72;101589.09;5068493;28;20123;-85
2022/03/21 09:09:22;;;;;;;14.43;7.68;;;;;;;12.86;73.47;101598.00;5064393;28;20051;-85
2022/03/21 09:11:48;;;;;;;16.15;7.47;;;;;;;13.08;72.51;101616.22;5082125;28;20111;-86
2022/03/21 09:14:14;;;;;;;21.80;9.20;;;;;;;13.05;73.52;101624.66;5047562;28;20036;-85
2022/03/21 09:16:42;;;;;;;19.20;8.70;;;;;;;13.34;73.82;101607.94;5047938;28;20507;-85
2022/03/21 09:19:09;;;;;;;20.05;9.52;;;;;;;14.05;70.80;101619.63;5069803;28;20115;-85
2022/03/21 09:21:35;;;;;;;19.75;9.35;;;;;;;16.03;65.31;101624.88;5034594;28;20024;-85
2022/03/21 09:24:01;;;;;;;23.20;9.88;;;;;;;18.11;55.65;101612.69;5052014;28;20473;-86
2022/03/21 09:26:27;;;;;;;21.13;8.68;;;;;;;18.36;53.77;101602.88;5032877;28;20044;-85
2022/03/21 09:28:59;;;;;;;22.63;10.20;;;;;;;17.76;54.00;101613.56;5063260;28;20024;-85
2022/03/21 09:31:28;;;;;;;16.50;8.32;;;;;;;17.09;56.26;101615.06;5058432;28;20063;-84
2022/03/21 09:33:54;;;;;;;18.60;8.88;;;;;;;18.34;51.51;101609.59;5042541;28;20028;-81
2022/03/21 09:36:20;;;;;;;23.67;10.45;;;;;;;18.75;52.13;101605.91;5071522;28;20127;-80
2022/03/21 09:38:46;;;;;;;25.30;11.20;;;;;;;20.40;47.58;101590.03;5070288;28;20107;-80
2022/03/21 09:41:22;;;;;;;22.83;11.93;;;;;;;20.95;44.47;101593.00;5069233;28;20028;-80
2022/03/21 09:43:51;;;;;;;19.83;11.52;;;;;;;20.98;44.85;101597.19;5055789;28;20032;-81
2022/03/21 09:46:17;;;;;;;20.30;11.15;;;;;;;21.50;43.56;101586.78;5037135;28;20029;-81
2022/03/21 09:48:49;;;;;;;19.55;10.57;;;;;;;21.71;42.00;101590.94;5070459;28;20037;-80
2022/03/21 09:51:23;;;;;;;20.57;10.20;;;;;;;22.19;41.74;101570.13;5060430;28;20064;-81
2022/03/21 09:53:49;;;;;;;18.92;9.93;;;;;;;22.56;40.19;101584.50;5070143;28;20119;-80
2022/03/21 09:56:15;;;;;;;20.00;11.05;;;;;;;22.37;40.16;101587.31;5073359;28;20136;-81
2022/03/21 09:58:41;;;;;;;17.85;8.90;;;;;;;22.13;40.25;101585.56;5066823;28;20025;-80
2022/03/21 10:01:07;;;;;;;19.83;10.60;;;;;;;21.86;40.78;101577.72;5072054;28;20032;-80
2022/03/21 10:03:36;;;;;;;17.17;10.02;;;;;;;21.91;41.10;101579.72;5070774;28;20187;-81
2022/03/21 10:06:01;;;;;;;13.00;8.63;;;;;;;21.99;40.42;101573.97;5069531;28;20042;-80
2022/03/21 10:08:28;;;;;;;14.00;7.65;;;;;;;21.98;40.87;101579.66;5079122;28;20119;-80
2022/03/21 10:10:55;;;;;;;25.05;13.38;;;;;;;22.24;40.30;101584.78;5053731;28;20036;-79
2022/03/21 10:13:22;;;;;;;17.25;9.18;;;;;;;22.29;40.01;101581.34;5070415;28;20069;-80
2022/03/21 10:15:48;;;;;;;12.48;7.00;;;;;;;22.26;39.58;101579.09;5054101;28;20033;-80
2022/03/21 10:18:13;;;;;;;15.05;6.72;;;;;;;21.95;40.41;101568.09;5043877;28;20028;-81
2022/03/21 10:20:40;;;;;;;19.73;11.15;;;;;;;21.97;40.04;101575.25;5068198;28;20031;-79
2022/03/21 10:23:15;;;;;;;18.15;10.10;;;;;;;21.96;39.89;101574.41;5069937;28;20489;-80
2022/03/21 10:25:41;;;;;;;26.30;10.25;;;;;;;21.74;40.87;101560.38;5070602;28;20039;-79
2022/03/21 10:28:07;;;;;;;11.60;7.05;;;;;;;21.07;41.62;101560.28;5052674;28;20029;-79
2022/03/21 10:30:32;;;;;;;24.33;10.05;;;;;;;18.75;47.06;101571.31;5053223;28;20474;-79
2022/03/21 10:32:59;;;;;;;24.15;11.73;;;;;;;18.50;48.00;101575.66;5068808;28;20050;-78
2022/03/21 10:35:27;;;;;;;24.25;10.27;;;;;;;18.63;49.37;101578.44;5068126;28;20032;-76
2022/03/21 10:37:55;;;;;;;20.65;9.77;;;;;;;17.09;52.92;101570.72;5053071;28;20031;-76
2022/03/21 10:40:31;;;;;;;16.42;8.23;;;;;;;17.55;52.33;101562.03;5056218;28;20131;-76
2022/03/21 10:43:05;;;;;;;20.30;10.20;;;;;;;20.29;46.88;101579.84;5064709;28;20117;-76
2022/03/21 10:45:36;;;;;;;24.95;10.05;;;;;;;21.16;43.96;101563.56;5041952;28;20082;-77
2022/03/21 10:48:11;;;;;;;18.10;9.10;;;;;;;21.50;43.15;101559.41;5051200;28;20119;-76
2022/03/21 10:50:48;;;;;;;21.50;9.50;;;;;;;22.27;41.17;101564.31;5067386;28;20115;-76
2022/03/21 10:53:17;;;;;;;20.65;9.73;;;;;;;22.91;39.85;101568.06;5064927;28;20067;-76
2022/03/21 10:55:49;;;;;;;19.35;9.55;;;;;;;23.40;37.75;101554.13;5033009;28;20053;-76
2022/03/21 10:58:17;;;;;;;17.83;10.00;;;;;;;23.73;37.61;101566.34;5056398;28;20033;-76
2022/03/21 11:00:43;;;;;;;25.80;13.75;;;;;;;23.60;38.17;101557.25;5036821;28;20493;-76
2022/03/21 11:03:17;;;;;;;25.38;12.93;;;;;;;24.27;37.14;101558.59;5052583;28;20041;-76
2022/03/21 12:43:54;;;;;;;24.20;11.90;;;;;;;20.72;46.24;101552.63;5102024;27;20417;-74
2022/03/21 12:46:21;;;;;;;21.50;13.15;;;;;;;21.15;45.16;101545.50;5085294;28;20036;-75
2022/03/21 12:48:58;;;;;;;24.55;10.90;;;;;;;20.46;46.10;101542.75;5082865;28;20032;-75
2022/03/21 12:51:33;;;;;;;24.55;13.68;;;;;;;20.19;48.26;101551.13;5045605;28;20089;-74
2022/03/21 12:54:08;;;;;;;18.85;9.95;;;;;;;20.46;46.67;101539.19;5077672;28;20558;-78
2022/03/21 12:56:34;;;;;;;23.58;12.55;;;;;;;20.37;46.66;101535.84;5084015;28;20097;-74
2022/03/21 12:59:05;;;;;;;17.88;10.73;;;;;;;21.50;44.08;101535.63;5081376;28;20020;-79
2022/03/21 13:01:32;;;;;;;20.20;11.30;;;;;;;22.47;42.42;101539.34;5067000;28;20533;-75
2022/03/21 13:10:32;;;;;;;23.90;13.07;;;;;;;23.95;39.13;101534.38;5067271;28;20076;-76
2022/03/21 13:12:38;;;;;;;19.98;12.23;;;;;;;23.72;39.24;101526.25;5083900;28;20085;-75